createdAt,value
2023-05-04T00:01:31.411Z,8.17
2023-05-04T00:03:58.185Z,8.15
2023-05-04T00:06:24.958Z,8.10
2023-05-04T00:08:52.538Z,8.08
2023-05-04T00:11:19.226Z,8.09
2023-05-04T00:13:55.236Z,8.05
2023-05-04T00:16:22.127Z,8.04
2023-05-04T00:18:48.881Z,7.98
2023-05-04T00:21:18.092Z,8.01
2023-05-04T00:23:46.796Z,7.99
2023-05-04T00:26:13.278Z,7.99
2023-05-04T00:28:39.986Z,7.99
2023-05-04T00:31:06.648Z,8.01
2023-05-04T00:33:33.329Z,8.00
2023-05-04T00:36:00.292Z,8.03
2023-05-04T00:38:26.721Z,8.16
2023-05-04T00:40:54.085Z,8.17
2023-05-04T00:43:20.767Z,8.15
2023-05-04T00:45:48.179Z,8.15
2023-05-04T00:48:15.537Z,8.13
2023-05-04T00:50:42.234Z,8.11
2023-05-04T00:53:10.600Z,8.11
2023-05-04T00:55:40.976Z,8.22
2023-05-04T00:58:14.467Z,8.30
2023-05-04T01:00:41.135Z,8.31
2023-05-04T01:03:10.154Z,8.37
2023-05-04T01:05:44.901Z,8.45
2023-05-04T01:08:18.974Z,8.49
2023-05-04T01:10:52.361Z,8.25
2023-05-04T01:13:21.882Z,8.05
2023-05-04T01:15:50.204Z,7.95
2023-05-04T01:18:17.312Z,7.87
2023-05-04T01:20:44.322Z,7.83
2023-05-04T01:23:11.722Z,7.83
2023-05-04T01:25:48.533Z,7.87
2023-05-04T01:28:44.961Z,7.83
2023-05-04T01:31:17.645Z,7.73
2023-05-04T01:33:45.270Z,7.65
2023-05-04T01:36:11.882Z,7.57
2023-05-04T01:38:39.769Z,7.53
2023-05-04T01:41:06.318Z,7.55
2023-05-04T01:43:33.130Z,7.54
2023-05-04T01:45:59.662Z,7.50
2023-05-04T01:48:28.723Z,7.47
2023-05-04T01:50:55.344Z,7.43
2023-05-04T01:53:21.868Z,7.42
2023-05-04T01:55:48.851Z,7.37
2023-05-04T01:58:15.283Z,7.31
2023-05-04T02:00:41.794Z,7.16
2023-05-04T02:03:08.645Z,7.05
2023-05-04T02:05:35.316Z,6.96
2023-05-04T02:08:01.926Z,6.90
2023-05-04T02:10:30.648Z,6.87
2023-05-04T02:12:57.969Z,6.86
2023-05-04T02:15:24.490Z,6.89
2023-05-04T02:17:50.922Z,6.83
2023-05-04T02:20:17.850Z,6.83
2023-05-04T02:22:46.204Z,6.80
2023-05-04T02:25:13.861Z,6.81
2023-05-04T02:27:40.405Z,6.82
2023-05-04T02:30:08.042Z,6.81
2023-05-04T02:32:34.697Z,6.77
2023-05-04T02:35:01.766Z,6.71
2023-05-04T02:37:28.638Z,6.67
2023-05-04T02:39:55.456Z,6.66
2023-05-04T02:42:22.052Z,6.55
2023-05-04T02:44:48.637Z,6.44
2023-05-04T02:47:15.982Z,6.45
2023-05-04T02:49:42.483Z,6.43
2023-05-04T02:52:10.222Z,6.41
2023-05-04T02:54:36.729Z,6.42
2023-05-04T02:57:03.863Z,6.42
2023-05-04T02:59:30.449Z,6.39
2023-05-04T03:01:57.095Z,6.34
2023-05-04T03:04:23.965Z,6.32
2023-05-04T03:06:50.404Z,6.30
2023-05-04T03:09:16.853Z,6.35
2023-05-04T03:11:44.912Z,6.32
2023-05-04T03:14:11.796Z,6.33
2023-05-04T03:16:38.318Z,6.29
2023-05-04T03:19:04.969Z,6.27
2023-05-04T03:21:32.652Z,6.24
2023-05-04T03:23:59.432Z,6.22
2023-05-04T03:26:26.096Z,6.23
2023-05-04T03:28:52.857Z,6.24
2023-05-04T03:31:19.397Z,6.21
2023-05-04T03:33:48.303Z,6.21
2023-05-04T03:36:14.907Z,6.17
2023-05-04T03:38:41.390Z,6.14
2023-05-04T03:41:08.245Z,6.16
2023-05-04T03:43:35.132Z,6.16
2023-05-04T03:46:01.757Z,6.18
2023-05-04T03:48:28.594Z,6.14
2023-05-04T03:50:55.512Z,6.12
2023-05-04T03:53:22.069Z,6.07
2023-05-04T03:55:49.010Z,6.03
2023-05-04T03:58:15.382Z,6.02
2023-05-04T04:00:43.005Z,6.00
2023-05-04T04:03:09.785Z,6.00
2023-05-04T04:05:36.575Z,6.05
2023-05-04T04:08:03.755Z,6.07
2023-05-04T04:10:31.172Z,6.08
2023-05-04T04:12:57.842Z,6.10
2023-05-04T04:15:24.505Z,6.10
2023-05-04T04:17:51.208Z,6.16
2023-05-04T04:20:18.191Z,6.17
2023-05-04T04:22:44.689Z,6.20
2023-05-04T04:25:11.603Z,6.18
2023-05-04T04:27:38.132Z,6.29
2023-05-04T04:30:05.550Z,6.33
2023-05-04T04:32:32.316Z,6.29
2023-05-04T04:34:59.045Z,6.31
2023-05-04T04:37:25.613Z,6.26
2023-05-04T04:39:52.794Z,6.25
2023-05-04T04:42:19.784Z,6.21
2023-05-04T04:44:47.013Z,6.13
2023-05-04T04:47:13.795Z,6.15
2023-05-04T04:49:40.403Z,6.22
2023-05-04T04:52:06.905Z,6.28
2023-05-04T04:54:33.481Z,6.30
2023-05-04T04:57:01.957Z,6.53
2023-05-04T04:59:28.506Z,6.98
2023-05-04T05:01:55.091Z,7.37
2023-05-04T05:04:21.830Z,7.91
2023-05-04T05:06:48.684Z,8.21
2023-05-04T05:09:15.988Z,8.89
2023-05-04T05:11:43.503Z,9.51
2023-05-04T05:14:10.110Z,8.78
2023-05-04T05:16:37.095Z,9.57
2023-05-04T05:19:03.971Z,10.09
2023-05-04T05:21:30.853Z,10.70
2023-05-04T05:23:57.754Z,11.00
2023-05-04T05:26:24.673Z,11.17
2023-05-04T05:28:51.296Z,11.67
2023-05-04T05:31:17.959Z,11.68
2023-05-04T05:33:44.625Z,12.19
2023-05-04T05:36:11.226Z,12.93
2023-05-04T05:38:38.247Z,12.74
2023-05-04T05:41:05.231Z,13.85
2023-05-04T05:43:31.745Z,14.09
2023-05-04T05:45:58.798Z,14.60
2023-05-04T05:48:25.282Z,15.17
2023-05-04T05:50:52.126Z,15.41
2023-05-04T05:53:18.571Z,14.83
2023-05-04T05:55:46.715Z,14.70
2023-05-04T05:58:13.632Z,14.19
2023-05-04T06:00:40.212Z,13.95
2023-05-04T06:03:08.971Z,14.70
2023-05-04T06:05:37.926Z,15.08
2023-05-04T06:08:05.943Z,14.03
2023-05-04T06:10:32.513Z,14.65
2023-05-04T06:12:59.454Z,14.42
2023-05-04T06:15:28.193Z,15.15
2023-05-04T06:17:57.842Z,16.59
2023-05-04T06:20:24.807Z,16.51
2023-05-04T06:22:51.339Z,15.27
2023-05-04T06:25:17.840Z,14.98
2023-05-04T06:27:44.831Z,14.78
2023-05-04T06:30:12.155Z,16.06
2023-05-04T06:32:38.897Z,16.22
2023-05-04T06:35:06.995Z,17.10
2023-05-04T06:37:33.854Z,15.78
2023-05-04T06:40:01.588Z,15.72
2023-05-04T06:42:31.397Z,17.30
2023-05-04T06:44:58.197Z,16.52
2023-05-04T06:47:25.001Z,17.19
2023-05-04T06:49:52.024Z,17.41
2023-05-04T06:52:18.664Z,17.09
2023-05-04T06:54:45.142Z,16.70
2023-05-04T06:57:12.200Z,16.63
2023-05-04T06:59:38.964Z,15.63
2023-05-04T07:02:05.417Z,15.94
2023-05-04T07:04:32.178Z,15.51
2023-05-04T07:06:59.810Z,15.38
2023-05-04T07:09:26.509Z,14.97
2023-05-04T07:11:53.410Z,15.02
2023-05-04T07:14:20.956Z,15.31
2023-05-04T07:16:47.560Z,15.38
2023-05-04T07:19:14.249Z,15.52
2023-05-04T07:21:41.696Z,15.38
2023-05-04T07:24:08.255Z,15.21
2023-05-04T07:26:36.004Z,15.18
2023-05-04T07:29:02.611Z,15.26
2023-05-04T07:31:30.568Z,15.37
2023-05-04T07:33:57.942Z,15.34
2023-05-04T07:36:24.792Z,15.62
2023-05-04T07:38:51.414Z,15.74
2023-05-04T07:41:17.959Z,16.12
2023-05-04T07:43:44.729Z,16.10
2023-05-04T07:46:11.362Z,16.39
2023-05-04T07:48:38.160Z,16.62
2023-05-04T07:51:04.770Z,16.53
2023-05-04T07:53:31.549Z,16.80
2023-05-04T07:55:58.198Z,16.91
2023-05-04T07:58:25.043Z,16.89
2023-05-04T08:00:52.034Z,17.41
2023-05-04T08:03:20.880Z,17.19
2023-05-04T08:05:47.514Z,17.20
2023-05-04T08:08:14.380Z,17.21
2023-05-04T08:10:41.276Z,17.14
2023-05-04T08:13:08.178Z,16.95
2023-05-04T08:15:35.498Z,17.14
2023-05-04T08:18:02.396Z,17.25
2023-05-04T08:20:29.362Z,17.33
2023-05-04T08:22:56.428Z,17.74
2023-05-04T08:25:23.245Z,17.47
2023-05-04T08:27:50.035Z,17.65
2023-05-04T08:30:17.001Z,17.85
2023-05-04T08:32:46.217Z,17.96
2023-05-04T08:35:13.403Z,17.69
2023-05-04T08:37:40.652Z,17.83
2023-05-04T08:40:08.791Z,17.97
2023-05-04T08:42:35.700Z,18.34
2023-05-04T08:45:03.237Z,18.40
2023-05-04T08:47:29.941Z,18.72
2023-05-04T08:49:56.983Z,18.99
2023-05-04T08:52:25.088Z,18.84
2023-05-04T08:54:53.748Z,18.60
2023-05-04T08:57:25.479Z,19.09
2023-05-04T08:59:54.272Z,19.27
2023-05-04T09:02:23.057Z,19.28
2023-05-04T09:04:51.221Z,19.30
2023-05-04T09:07:22.056Z,19.39
2023-05-04T09:09:48.915Z,19.35
2023-05-04T09:12:17.421Z,19.22
2023-05-04T09:14:44.576Z,19.56
2023-05-04T09:17:16.673Z,19.92
2023-05-04T09:19:44.396Z,19.39
2023-05-04T09:22:15.810Z,19.88
2023-05-04T09:24:42.611Z,19.69
2023-05-04T09:27:13.804Z,20.15
2023-05-04T09:29:41.997Z,20.09
2023-05-04T09:32:13.162Z,20.33
2023-05-04T09:34:52.980Z,20.65
2023-05-04T09:37:20.788Z,20.42
2023-05-04T09:39:59.401Z,20.47
2023-05-04T09:42:27.082Z,20.46
2023-05-04T09:45:04.607Z,20.62
2023-05-04T09:47:40.043Z,20.87
2023-05-04T09:50:22.489Z,20.88
2023-05-04T09:52:50.400Z,20.94
2023-05-04T09:55:22.905Z,20.90
2023-05-04T09:57:50.089Z,21.03
2023-05-04T10:00:17.840Z,21.26
2023-05-04T10:02:46.078Z,21.12
2023-05-04T10:05:17.433Z,20.95
2023-05-04T10:07:47.532Z,21.31
2023-05-04T10:10:16.380Z,21.05
2023-05-04T10:12:44.911Z,21.29
2023-05-04T10:15:13.103Z,21.31
2023-05-04T10:18:10.109Z,21.05
2023-05-04T10:20:46.447Z,21.53
2023-05-04T10:23:43.553Z,21.61
2023-05-04T10:26:48.248Z,21.97
2023-05-04T10:29:23.743Z,21.26
2023-05-04T10:31:53.640Z,21.41
2023-05-04T10:34:34.620Z,21.61
2023-05-04T10:37:02.513Z,21.73
2023-05-04T10:39:33.934Z,21.99
2023-05-04T10:42:05.112Z,21.86
2023-05-04T10:44:34.735Z,21.70
2023-05-04T10:47:08.088Z,21.66
2023-05-04T10:49:38.237Z,21.57
2023-05-04T10:52:22.795Z,21.72
2023-05-04T10:54:59.389Z,22.06
2023-05-04T10:57:27.776Z,21.96
2023-05-04T10:59:56.444Z,22.16
2023-05-04T11:02:25.982Z,21.98
2023-05-04T11:05:03.884Z,22.68
2023-05-04T11:07:40.443Z,21.97
2023-05-04T11:10:20.292Z,22.58
2023-05-04T11:12:47.466Z,22.13
2023-05-04T11:15:14.762Z,22.83
2023-05-04T11:17:53.417Z,22.48
2023-05-04T11:20:22.198Z,22.43
2023-05-04T11:22:49.482Z,22.73
2023-05-04T11:25:16.710Z,22.71
2023-05-04T11:27:44.236Z,22.89
2023-05-04T11:30:14.436Z,22.68
2023-05-04T11:32:45.320Z,23.05
2023-05-04T11:35:20.470Z,23.07
2023-05-04T11:37:48.956Z,22.63
2023-05-04T11:40:20.295Z,23.00
2023-05-04T11:42:47.697Z,23.09
2023-05-04T11:45:19.695Z,23.28
2023-05-04T11:47:49.071Z,23.23
2023-05-04T11:50:20.476Z,22.79
2023-05-04T11:52:47.990Z,23.30
2023-05-04T11:55:28.627Z,23.14
2023-05-04T11:58:03.621Z,23.11
2023-05-04T12:00:46.248Z,22.98
2023-05-04T12:03:15.410Z,22.92
2023-05-04T12:05:51.195Z,23.17
2023-05-04T12:08:27.019Z,22.86
2023-05-04T12:11:23.570Z,23.29
2023-05-04T12:14:13.142Z,23.60
2023-05-04T12:16:40.217Z,23.02
2023-05-04T12:19:11.738Z,22.99
2023-05-04T12:21:50.161Z,22.89
2023-05-04T12:24:16.807Z,22.57
2023-05-04T12:26:43.486Z,22.62
2023-05-04T12:29:15.880Z,23.26
2023-05-04T12:31:46.005Z,23.18
2023-05-04T12:34:14.171Z,22.68
2023-05-04T12:36:41.599Z,22.75
2023-05-04T12:39:08.637Z,23.17
2023-05-04T12:41:35.336Z,22.53
2023-05-04T12:44:02.249Z,22.88
2023-05-04T12:46:28.963Z,23.38
2023-05-04T12:48:55.652Z,23.45
2023-05-04T12:51:22.485Z,23.48
2023-05-04T12:53:49.323Z,23.26
2023-05-04T12:56:16.025Z,23.32
2023-05-04T12:58:43.039Z,23.46
2023-05-04T13:01:09.931Z,22.83
2023-05-04T13:03:36.910Z,23.08
2023-05-04T13:06:03.761Z,23.23
2023-05-04T13:08:30.361Z,23.26
2023-05-04T13:10:56.955Z,23.41
2023-05-04T13:13:23.936Z,23.16
2023-05-04T13:15:51.388Z,22.96
2023-05-04T13:18:18.098Z,23.13
2023-05-04T13:20:44.694Z,22.95
2023-05-04T13:23:11.437Z,22.85
2023-05-04T13:25:38.066Z,22.99
2023-05-04T13:28:05.021Z,22.86
2023-05-04T13:30:31.714Z,23.34
2023-05-04T13:32:58.664Z,23.21
2023-05-04T13:35:26.996Z,23.09
2023-05-04T13:37:55.343Z,23.20
2023-05-04T13:40:22.197Z,23.39
2023-05-04T13:42:48.957Z,22.94
2023-05-04T13:45:20.006Z,23.34
2023-05-04T13:47:46.852Z,23.15
2023-05-04T13:50:13.923Z,23.42
2023-05-04T13:52:40.851Z,23.09
2023-05-04T13:55:09.629Z,23.59
2023-05-04T13:57:37.858Z,23.24
2023-05-04T14:00:08.780Z,23.49
2023-05-04T14:02:35.901Z,23.52
2023-05-04T14:05:04.382Z,23.34
2023-05-04T14:07:31.539Z,23.27
2023-05-04T14:10:02.223Z,23.12
2023-05-04T14:12:29.165Z,23.52
2023-05-04T14:14:57.198Z,23.39
2023-05-04T14:17:23.867Z,23.47
2023-05-04T14:19:50.700Z,23.25
2023-05-04T14:22:19.810Z,23.30
2023-05-04T14:24:46.774Z,23.29
2023-05-04T14:27:13.786Z,23.57
2023-05-04T14:29:40.604Z,23.54
2023-05-04T14:32:07.298Z,23.74
2023-05-04T14:34:34.041Z,23.78
2023-05-04T14:37:00.611Z,23.91
2023-05-04T14:39:27.168Z,23.80
2023-05-04T14:41:55.852Z,23.74
2023-05-04T14:44:22.601Z,23.71
2023-05-04T14:46:49.328Z,23.70
2023-05-04T14:49:28.393Z,23.45
2023-05-04T14:52:02.801Z,23.31
2023-05-04T14:54:31.010Z,23.61
2023-05-04T14:56:57.704Z,23.03
2023-05-04T14:59:27.159Z,23.25
2023-05-04T15:01:53.674Z,23.26
2023-05-04T15:04:20.245Z,23.58
2023-05-04T15:06:50.789Z,23.54
2023-05-04T15:09:17.365Z,23.75
2023-05-04T15:11:43.939Z,23.24
2023-05-04T15:14:10.613Z,23.35
2023-05-04T15:16:37.639Z,23.48
2023-05-04T15:19:04.298Z,23.64
2023-05-04T15:21:30.905Z,23.55
2023-05-04T15:23:57.720Z,22.97
2023-05-04T15:26:24.215Z,23.08
2023-05-04T15:28:53.917Z,23.34
2023-05-04T15:31:23.474Z,22.99
2023-05-04T15:33:51.389Z,23.25
2023-05-04T15:36:18.026Z,22.71
2023-05-04T15:38:44.809Z,22.96
2023-05-04T15:41:11.393Z,23.00
2023-05-04T15:43:38.027Z,23.02
2023-05-04T15:46:04.906Z,22.81
2023-05-04T15:48:31.645Z,22.85
2023-05-04T15:50:58.143Z,22.94
2023-05-04T15:53:24.743Z,23.03
2023-05-04T15:55:51.342Z,22.89
2023-05-04T15:58:18.174Z,22.60
2023-05-04T16:00:45.067Z,22.58
2023-05-04T16:03:12.435Z,22.59
2023-05-04T16:05:39.291Z,22.73
2023-05-04T16:08:06.360Z,22.77
2023-05-04T16:10:33.330Z,22.82
2023-05-04T16:12:59.900Z,22.85
2023-05-04T16:15:26.758Z,23.02
2023-05-04T16:17:55.909Z,22.72
2023-05-04T16:20:22.960Z,22.75
2023-05-04T16:22:49.772Z,22.66
2023-05-04T16:25:17.953Z,22.71
2023-05-04T16:27:44.609Z,22.70
2023-05-04T16:30:11.979Z,22.73
2023-05-04T16:32:38.877Z,22.75
2023-05-04T16:35:06.986Z,22.65
2023-05-04T16:37:38.071Z,22.59
2023-05-04T16:40:17.049Z,22.47
2023-05-04T16:42:47.891Z,22.50
2023-05-04T16:45:16.730Z,22.29
2023-05-04T16:47:44.540Z,22.53
2023-05-04T16:50:12.508Z,22.18
2023-05-04T16:52:39.760Z,22.16
2023-05-04T16:55:11.892Z,22.13
2023-05-04T16:57:39.018Z,22.07
2023-05-04T17:00:06.655Z,21.96
2023-05-04T17:02:33.674Z,22.02
2023-05-04T17:05:00.364Z,21.86
2023-05-04T17:07:27.451Z,21.83
2023-05-04T17:09:57.506Z,21.84
2023-05-04T17:12:30.438Z,21.83
2023-05-04T17:14:58.406Z,21.81
2023-05-04T17:17:25.158Z,21.87
2023-05-04T17:19:54.422Z,21.71
2023-05-04T17:22:21.091Z,21.86
2023-05-04T17:24:47.747Z,21.65
2023-05-04T17:27:14.567Z,21.61
2023-05-04T17:29:42.878Z,21.42
2023-05-04T17:32:09.999Z,21.52
2023-05-04T17:34:37.563Z,21.39
2023-05-04T17:37:12.307Z,21.33
2023-05-04T17:39:39.473Z,21.32
2023-05-04T17:42:07.053Z,21.20
2023-05-04T17:44:34.457Z,21.21
2023-05-04T17:47:06.779Z,21.31
2023-05-04T17:49:34.842Z,21.32
2023-05-04T17:52:01.785Z,21.08
2023-05-04T17:54:32.978Z,21.17
2023-05-04T17:57:01.690Z,21.09
2023-05-04T17:59:52.474Z,20.88
2023-05-04T18:02:19.886Z,20.82
2023-05-04T18:04:47.124Z,20.77
2023-05-04T18:07:17.218Z,20.67
2023-05-04T18:09:48.807Z,20.50
2023-05-04T18:12:15.404Z,20.51
2023-05-04T18:14:47.053Z,20.58
2023-05-04T18:17:14.101Z,20.21
2023-05-04T18:19:41.200Z,20.13
2023-05-04T18:22:09.251Z,20.21
2023-05-04T18:24:35.854Z,19.96
2023-05-04T18:27:02.551Z,19.78
2023-05-04T18:29:29.622Z,19.97
2023-05-04T18:31:56.547Z,19.69
2023-05-04T18:34:24.671Z,19.71
2023-05-04T18:36:52.157Z,19.69
2023-05-04T18:39:18.821Z,19.41
2023-05-04T18:41:45.719Z,19.33
2023-05-04T18:44:12.837Z,19.24
2023-05-04T18:46:39.636Z,19.27
2023-05-04T18:49:07.634Z,19.14
2023-05-04T18:51:34.361Z,19.34
2023-05-04T18:54:01.315Z,19.20
2023-05-04T18:56:30.525Z,18.96
2023-05-04T18:58:57.360Z,19.02
2023-05-04T19:01:25.911Z,18.86
2023-05-04T19:03:53.567Z,18.73
2023-05-04T19:06:22.718Z,18.73
2023-05-04T19:08:49.727Z,18.61
2023-05-04T19:11:16.495Z,18.47
2023-05-04T19:13:43.256Z,18.39
2023-05-04T19:16:13.190Z,18.37
2023-05-04T19:18:40.400Z,18.38
2023-05-04T19:21:07.120Z,18.26
2023-05-04T19:23:33.636Z,18.18
2023-05-04T19:26:00.182Z,18.06
2023-05-04T19:28:26.715Z,18.02
2023-05-04T19:30:55.273Z,17.96
2023-05-04T19:33:36.377Z,17.87
2023-05-04T19:36:12.763Z,17.81
2023-05-04T19:38:40.232Z,17.67
2023-05-04T19:41:07.232Z,17.55
2023-05-04T19:43:34.021Z,17.44
2023-05-04T19:46:02.788Z,17.39
2023-05-04T19:48:29.303Z,17.29
2023-05-04T19:51:14.122Z,17.15
2023-05-04T19:53:40.664Z,17.04
2023-05-04T19:56:07.452Z,16.79
2023-05-04T19:58:34.051Z,16.63
2023-05-04T20:01:00.785Z,16.50
2023-05-04T20:03:27.447Z,16.40
2023-05-04T20:05:54.101Z,16.35
2023-05-04T20:08:21.400Z,16.27
2023-05-04T20:10:48.275Z,16.18
2023-05-04T20:13:14.787Z,16.11
2023-05-04T20:15:41.579Z,16.07
2023-05-04T20:18:08.098Z,16.02
2023-05-04T20:20:35.049Z,15.96
2023-05-04T20:23:01.576Z,15.89
2023-05-04T20:25:28.057Z,15.86
2023-05-04T20:27:54.551Z,15.80
2023-05-04T20:30:21.474Z,15.76
2023-05-04T20:32:49.291Z,15.68
2023-05-04T20:35:21.210Z,15.63
2023-05-04T20:37:47.735Z,15.57
2023-05-04T20:40:14.743Z,15.49
2023-05-04T20:42:41.235Z,15.47
2023-05-04T20:45:09.366Z,15.44
2023-05-04T20:47:36.102Z,15.39
2023-05-04T20:50:06.182Z,15.33
2023-05-04T20:52:33.002Z,15.23
2023-05-04T20:55:00.286Z,15.11
2023-05-04T20:57:27.045Z,15.02
2023-05-04T20:59:54.431Z,14.86
2023-05-04T21:02:21.792Z,14.79
2023-05-04T21:04:49.496Z,14.73
2023-05-04T21:07:16.245Z,14.68
2023-05-04T21:09:43.864Z,14.61
2023-05-04T21:12:10.390Z,14.50
2023-05-04T21:14:38.576Z,14.43
2023-05-04T21:17:05.130Z,14.41
2023-05-04T21:19:31.539Z,14.36
2023-05-04T21:21:58.157Z,14.21
2023-05-04T21:24:25.049Z,14.15
2023-05-04T21:26:52.969Z,14.07
2023-05-04T21:29:19.898Z,13.97
2023-05-04T21:31:46.816Z,13.95
2023-05-04T21:34:13.706Z,13.93
2023-05-04T21:36:40.574Z,13.91
2023-05-04T21:39:12.030Z,13.85
2023-05-04T21:41:38.824Z,13.82
2023-05-04T21:44:05.443Z,13.83
2023-05-04T21:46:32.263Z,13.78
2023-05-04T21:48:59.135Z,13.74
2023-05-04T21:51:25.750Z,13.75
2023-05-04T21:53:53.309Z,13.76
2023-05-04T21:56:20.067Z,13.67
2023-05-04T21:58:47.843Z,13.63
2023-05-04T22:01:18.098Z,13.54
2023-05-04T22:03:44.887Z,13.44
2023-05-04T22:06:11.670Z,13.40
2023-05-04T22:08:38.395Z,13.34
2023-05-04T22:11:05.481Z,13.27
2023-05-04T22:13:32.020Z,13.27
2023-05-04T22:15:58.844Z,13.20
2023-05-04T22:18:27.218Z,13.14
2023-05-04T22:20:53.725Z,13.10
2023-05-04T22:23:20.349Z,13.00
2023-05-04T22:25:46.898Z,12.99
2023-05-04T22:28:13.562Z,12.91
2023-05-04T22:30:40.801Z,12.90
2023-05-04T22:33:07.328Z,12.81
2023-05-04T22:35:41.572Z,12.79
2023-05-04T22:38:08.225Z,12.67
2023-05-04T22:40:34.745Z,12.57
2023-05-04T22:43:01.265Z,12.57
2023-05-04T22:45:28.341Z,12.56
2023-05-04T22:47:54.806Z,12.57
2023-05-04T22:50:21.402Z,12.58
2023-05-04T22:52:49.192Z,12.56
2023-05-04T22:55:16.030Z,12.59
2023-05-04T22:57:42.711Z,12.57
2023-05-04T23:00:10.189Z,12.55
2023-05-04T23:02:37.339Z,12.51
2023-05-04T23:05:04.230Z,12.41
2023-05-04T23:07:30.824Z,12.28
2023-05-04T23:09:57.724Z,12.26
2023-05-04T23:12:24.292Z,12.20
2023-05-04T23:14:51.577Z,12.19
2023-05-04T23:17:19.287Z,12.15
2023-05-04T23:19:46.199Z,12.11
2023-05-04T23:22:13.238Z,11.99
2023-05-04T23:24:39.725Z,11.94
2023-05-04T23:27:06.617Z,11.96
2023-05-04T23:29:33.101Z,11.95
2023-05-04T23:32:00.019Z,11.95
2023-05-04T23:34:26.853Z,11.88
2023-05-04T23:36:53.976Z,11.92
2023-05-04T23:39:21.023Z,11.87
2023-05-04T23:41:47.633Z,11.78
2023-05-04T23:44:14.698Z,11.73
2023-05-04T23:46:41.212Z,11.78
2023-05-04T23:49:07.608Z,11.78
2023-05-04T23:51:34.184Z,11.76
2023-05-04T23:54:00.718Z,11.73
2023-05-04T23:56:27.252Z,11.72
2023-05-04T23:58:54.033Z,11.71
